sensor_id;sensor_type;location;lat;lon;timestamp;P1;durP1;ratioP1;P2;durP2;ratioP2
13208;SDS011;6669;42.678;23.332;2023-09-12T00:02:17;3.90;;;2.28;;
13208;SDS011;6669;42.678;23.332;2023-09-12T00:04:45;6.28;;;2.13;;
13208;SDS011;6669;42.678;23.332;2023-09-12T00:07:18;2.10;;;1.77;;
13208;SDS011;6669;42.678;23.332;2023-09-12T00:09:46;2.70;;;2.20;;
13208;SDS011;6669;42.678;23.332;2023-09-12T00:12:14;3.05;;;2.25;;
13208;SDS011;6669;42.678;23.332;2023-09-12T00:14:43;2.50;;;2.00;;
13208;SDS011;6669;42.678;23.332;2023-09-12T00:17:11;4.00;;;1.85;;
13208;SDS011;6669;42.678;23.332;2023-09-12T00:19:39;2.08;;;1.88;;
13208;SDS011;6669;42.678;23.332;2023-09-12T00:22:06;1.80;;;1.67;;
13208;SDS011;6669;42.678;23.332;2023-09-12T00:24:36;4.65;;;2.00;;
13208;SDS011;6669;42.678;23.332;2023-09-12T00:27:04;2.40;;;1.73;;
13208;SDS011;6669;42.678;23.332;2023-09-12T00:29:32;2.78;;;1.95;;
13208;SDS011;6669;42.678;23.332;2023-09-12T00:32:01;2.40;;;2.00;;
13208;SDS011;6669;42.678;23.332;2023-09-12T00:34:29;3.72;;;2.15;;
13208;SDS011;6669;42.678;23.332;2023-09-12T00:36:57;3.33;;;1.92;;
13208;SDS011;6669;42.678;23.332;2023-09-12T00:39:24;3.75;;;1.88;;
13208;SDS011;6669;42.678;23.332;2023-09-12T00:41:54;4.22;;;2.20;;
13208;SDS011;6669;42.678;23.332;2023-09-12T00:44:22;3.15;;;2.10;;
13208;SDS011;6669;42.678;23.332;2023-09-12T00:46:50;3.67;;;1.92;;
13208;SDS011;6669;42.678;23.332;2023-09-12T00:49:20;2.92;;;2.13;;
13208;SDS011;6669;42.678;23.332;2023-09-12T00:51:49;3.58;;;2.10;;
13208;SDS011;6669;42.678;23.332;2023-09-12T00:54:18;2.30;;;1.92;;
13208;SDS011;6669;42.678;23.332;2023-09-12T00:56:47;2.10;;;1.80;;
13208;SDS011;6669;42.678;23.332;2023-09-12T00:59:15;2.70;;;2.17;;
13208;SDS011;6669;42.678;23.332;2023-09-12T01:01:45;2.38;;;1.88;;
13208;SDS011;6669;42.678;23.332;2023-09-12T01:04:13;4.00;;;2.13;;
13208;SDS011;6669;42.678;23.332;2023-09-12T01:06:59;4.00;;;2.10;;
13208;SDS011;6669;42.678;23.332;2023-09-12T01:09:27;3.17;;;1.98;;
13208;SDS011;6669;42.678;23.332;2023-09-12T01:11:55;2.20;;;2.00;;
13208;SDS011;6669;42.678;23.332;2023-09-12T01:14:25;3.38;;;2.00;;
13208;SDS011;6669;42.678;23.332;2023-09-12T01:16:52;2.47;;;1.88;;
13208;SDS011;6669;42.678;23.332;2023-09-12T01:19:21;2.40;;;2.20;;
13208;SDS011;6669;42.678;23.332;2023-09-12T01:22:05;3.50;;;2.10;;
13208;SDS011;6669;42.678;23.332;2023-09-12T01:24:49;2.05;;;1.90;;
13208;SDS011;6669;42.678;23.332;2023-09-12T01:27:32;2.30;;;2.10;;
13208;SDS011;6669;42.678;23.332;2023-09-12T01:30:04;2.60;;;2.25;;
13208;SDS011;6669;42.678;23.332;2023-09-12T01:32:33;2.92;;;2.38;;
13208;SDS011;6669;42.678;23.332;2023-09-12T01:35:03;3.55;;;2.22;;
13208;SDS011;6669;42.678;23.332;2023-09-12T01:37:31;2.40;;;2.20;;
13208;SDS011;6669;42.678;23.332;2023-09-12T01:39:59;2.25;;;2.00;;
13208;SDS011;6669;42.678;23.332;2023-09-12T01:42:30;3.10;;;1.85;;
13208;SDS011;6669;42.678;23.332;2023-09-12T01:45:05;2.05;;;1.85;;
13208;SDS011;6669;42.678;23.332;2023-09-12T01:47:34;2.42;;;2.00;;
13208;SDS011;6669;42.678;23.332;2023-09-12T01:50:03;2.30;;;1.73;;
13208;SDS011;6669;42.678;23.332;2023-09-12T01:52:35;2.50;;;2.30;;
13208;SDS011;6669;42.678;23.332;2023-09-12T01:55:04;3.15;;;1.92;;
13208;SDS011;6669;42.678;23.332;2023-09-12T01:57:37;2.20;;;1.98;;
13208;SDS011;6669;42.678;23.332;2023-09-12T02:00:06;2.67;;;2.00;;
13208;SDS011;6669;42.678;23.332;2023-09-12T02:02:35;2.95;;;2.15;;
13208;SDS011;6669;42.678;23.332;2023-09-12T02:05:06;2.15;;;1.95;;
13208;SDS011;6669;42.678;23.332;2023-09-12T02:07:38;3.92;;;2.33;;
13208;SDS011;6669;42.678;23.332;2023-09-12T02:10:08;4.43;;;2.30;;
13208;SDS011;6669;42.678;23.332;2023-09-12T02:12:37;5.47;;;2.33;;
13208;SDS011;6669;42.678;23.332;2023-09-12T02:15:06;2.72;;;2.10;;
13208;SDS011;6669;42.678;23.332;2023-09-12T02:17:35;3.95;;;2.95;;
13208;SDS011;6669;42.678;23.332;2023-09-12T02:20:06;2.60;;;2.10;;
13208;SDS011;6669;42.678;23.332;2023-09-12T02:22:35;2.60;;;2.40;;
13208;SDS011;6669;42.678;23.332;2023-09-12T02:25:04;3.03;;;2.45;;
13208;SDS011;6669;42.678;23.332;2023-09-12T02:27:33;3.95;;;2.30;;
13208;SDS011;6669;42.678;23.332;2023-09-12T02:30:03;3.53;;;2.30;;
13208;SDS011;6669;42.678;23.332;2023-09-12T02:32:31;2.50;;;2.30;;
13208;SDS011;6669;42.678;23.332;2023-09-12T02:34:59;2.90;;;2.60;;
13208;SDS011;6669;42.678;23.332;2023-09-12T02:37:27;2.92;;;2.50;;
13208;SDS011;6669;42.678;23.332;2023-09-12T02:39:55;4.47;;;2.42;;
13208;SDS011;6669;42.678;23.332;2023-09-12T02:42:23;2.35;;;2.15;;
13208;SDS011;6669;42.678;23.332;2023-09-12T02:44:51;7.28;;;2.85;;
13208;SDS011;6669;42.678;23.332;2023-09-12T02:47:21;4.50;;;2.38;;
13208;SDS011;6669;42.678;23.332;2023-09-12T02:49:49;3.90;;;2.65;;
13208;SDS011;6669;42.678;23.332;2023-09-12T02:52:17;4.95;;;2.92;;
13208;SDS011;6669;42.678;23.332;2023-09-12T02:54:45;3.38;;;2.75;;
13208;SDS011;6669;42.678;23.332;2023-09-12T02:57:13;3.65;;;2.60;;
13208;SDS011;6669;42.678;23.332;2023-09-12T02:59:40;4.20;;;2.47;;
13208;SDS011;6669;42.678;23.332;2023-09-12T03:02:08;2.88;;;2.58;;
13208;SDS011;6669;42.678;23.332;2023-09-12T03:04:38;2.75;;;2.53;;
13208;SDS011;6669;42.678;23.332;2023-09-12T03:07:06;2.70;;;2.30;;
13208;SDS011;6669;42.678;23.332;2023-09-12T03:09:34;3.30;;;3.00;;
13208;SDS011;6669;42.678;23.332;2023-09-12T03:12:04;5.15;;;2.90;;
13208;SDS011;6669;42.678;23.332;2023-09-12T03:14:32;4.78;;;2.42;;
13208;SDS011;6669;42.678;23.332;2023-09-12T03:17:02;4.60;;;2.58;;
13208;SDS011;6669;42.678;23.332;2023-09-12T03:19:32;4.80;;;2.80;;
13208;SDS011;6669;42.678;23.332;2023-09-12T03:22:01;5.90;;;2.80;;
13208;SDS011;6669;42.678;23.332;2023-09-12T03:24:29;5.00;;;3.15;;
13208;SDS011;6669;42.678;23.332;2023-09-12T03:26:57;3.33;;;2.60;;
13208;SDS011;6669;42.678;23.332;2023-09-12T03:29:25;4.20;;;2.42;;
13208;SDS011;6669;42.678;23.332;2023-09-12T03:31:53;3.22;;;2.65;;
13208;SDS011;6669;42.678;23.332;2023-09-12T03:34:21;4.22;;;2.50;;
13208;SDS011;6669;42.678;23.332;2023-09-12T03:36:49;3.83;;;2.58;;
13208;SDS011;6669;42.678;23.332;2023-09-12T03:39:18;3.13;;;2.75;;
13208;SDS011;6669;42.678;23.332;2023-09-12T03:41:46;4.22;;;3.38;;
13208;SDS011;6669;42.678;23.332;2023-09-12T03:44:14;5.60;;;2.67;;
13208;SDS011;6669;42.678;23.332;2023-09-12T03:46:42;3.88;;;3.00;;
13208;SDS011;6669;42.678;23.332;2023-09-12T03:49:10;4.05;;;2.75;;
13208;SDS011;6669;42.678;23.332;2023-09-12T03:51:38;4.40;;;2.72;;
13208;SDS011;6669;42.678;23.332;2023-09-12T03:54:06;3.83;;;3.42;;
13208;SDS011;6669;42.678;23.332;2023-09-12T03:56:35;3.85;;;3.40;;
13208;SDS011;6669;42.678;23.332;2023-09-12T03:59:03;4.65;;;3.42;;
13208;SDS011;6669;42.678;23.332;2023-09-12T04:01:31;5.15;;;3.10;;
13208;SDS011;6669;42.678;23.332;2023-09-12T04:03:59;4.25;;;3.33;;
13208;SDS011;6669;42.678;23.332;2023-09-12T04:06:29;4.32;;;3.47;;
13208;SDS011;6669;42.678;23.332;2023-09-12T04:09:00;5.38;;;4.10;;
13208;SDS011;6669;42.678;23.332;2023-09-12T04:11:28;3.53;;;3.10;;
13208;SDS011;6669;42.678;23.332;2023-09-12T04:14:14;7.30;;;3.60;;
13208;SDS011;6669;42.678;23.332;2023-09-12T04:16:42;4.00;;;3.63;;
13208;SDS011;6669;42.678;23.332;2023-09-12T04:19:10;4.40;;;3.50;;
13208;SDS011;6669;42.678;23.332;2023-09-12T04:21:38;4.63;;;4.15;;
13208;SDS011;6669;42.678;23.332;2023-09-12T04:24:06;6.22;;;4.28;;
13208;SDS011;6669;42.678;23.332;2023-09-12T04:26:35;5.53;;;3.72;;
13208;SDS011;6669;42.678;23.332;2023-09-12T04:29:03;6.07;;;4.10;;
13208;SDS011;6669;42.678;23.332;2023-09-12T04:31:32;6.45;;;3.97;;
13208;SDS011;6669;42.678;23.332;2023-09-12T04:34:00;5.65;;;4.20;;
13208;SDS011;6669;42.678;23.332;2023-09-12T04:36:28;6.88;;;3.60;;
13208;SDS011;6669;42.678;23.332;2023-09-12T04:38:57;5.60;;;4.15;;
13208;SDS011;6669;42.678;23.332;2023-09-12T04:41:25;9.27;;;5.40;;
13208;SDS011;6669;42.678;23.332;2023-09-12T04:43:53;7.82;;;3.90;;
13208;SDS011;6669;42.678;23.332;2023-09-12T04:46:21;6.95;;;3.80;;
13208;SDS011;6669;42.678;23.332;2023-09-12T04:48:52;6.20;;;3.83;;
13208;SDS011;6669;42.678;23.332;2023-09-12T04:51:20;6.95;;;4.55;;
13208;SDS011;6669;42.678;23.332;2023-09-12T04:53:48;5.50;;;3.67;;
13208;SDS011;6669;42.678;23.332;2023-09-12T04:56:18;5.40;;;3.58;;
13208;SDS011;6669;42.678;23.332;2023-09-12T04:58:46;5.93;;;3.97;;
13208;SDS011;6669;42.678;23.332;2023-09-12T05:01:14;4.45;;;3.67;;
13208;SDS011;6669;42.678;23.332;2023-09-12T05:03:43;4.85;;;3.90;;
13208;SDS011;6669;42.678;23.332;2023-09-12T05:06:13;4.00;;;3.47;;
13208;SDS011;6669;42.678;23.332;2023-09-12T05:08:41;5.40;;;3.83;;
13208;SDS011;6669;42.678;23.332;2023-09-12T05:11:11;6.40;;;3.50;;
13208;SDS011;6669;42.678;23.332;2023-09-12T05:13:39;5.05;;;3.50;;
13208;SDS011;6669;42.678;23.332;2023-09-12T05:16:07;8.38;;;4.60;;
13208;SDS011;6669;42.678;23.332;2023-09-12T05:18:36;4.68;;;3.70;;
13208;SDS011;6669;42.678;23.332;2023-09-12T05:21:04;4.60;;;4.10;;
13208;SDS011;6669;42.678;23.332;2023-09-12T05:23:34;7.28;;;3.92;;
13208;SDS011;6669;42.678;23.332;2023-09-12T05:26:02;5.18;;;4.03;;
13208;SDS011;6669;42.678;23.332;2023-09-12T05:28:30;5.75;;;4.15;;
13208;SDS011;6669;42.678;23.332;2023-09-12T05:30:58;5.88;;;3.88;;
13208;SDS011;6669;42.678;23.332;2023-09-12T05:33:26;5.53;;;3.75;;
13208;SDS011;6669;42.678;23.332;2023-09-12T05:35:58;6.45;;;4.20;;
13208;SDS011;6669;42.678;23.332;2023-09-12T05:38:26;5.85;;;4.20;;
13208;SDS011;6669;42.678;23.332;2023-09-12T05:40:56;6.88;;;4.45;;
13208;SDS011;6669;42.678;23.332;2023-09-12T05:43:24;13.32;;;6.90;;
13208;SDS011;6669;42.678;23.332;2023-09-12T05:45:52;9.77;;;5.00;;
13208;SDS011;6669;42.678;23.332;2023-09-12T05:48:21;7.63;;;5.40;;
13208;SDS011;6669;42.678;23.332;2023-09-12T05:50:49;7.70;;;4.05;;
13208;SDS011;6669;42.678;23.332;2023-09-12T05:53:17;7.18;;;4.68;;
13208;SDS011;6669;42.678;23.332;2023-09-12T05:55:45;8.82;;;4.38;;
13208;SDS011;6669;42.678;23.332;2023-09-12T05:58:14;8.85;;;4.13;;
13208;SDS011;6669;42.678;23.332;2023-09-12T06:00:42;4.75;;;3.30;;
13208;SDS011;6669;42.678;23.332;2023-09-12T06:03:13;4.32;;;3.50;;
13208;SDS011;6669;42.678;23.332;2023-09-12T06:05:42;6.10;;;3.63;;
13208;SDS011;6669;42.678;23.332;2023-09-12T06:08:10;5.05;;;3.40;;
13208;SDS011;6669;42.678;23.332;2023-09-12T06:10:38;5.50;;;3.80;;
13208;SDS011;6669;42.678;23.332;2023-09-12T06:13:07;5.05;;;3.63;;
13208;SDS011;6669;42.678;23.332;2023-09-12T06:15:39;4.38;;;3.13;;
13208;SDS011;6669;42.678;23.332;2023-09-12T06:18:08;5.85;;;3.80;;
13208;SDS011;6669;42.678;23.332;2023-09-12T06:20:37;4.65;;;3.90;;
13208;SDS011;6669;42.678;23.332;2023-09-12T06:23:05;7.25;;;3.30;;
13208;SDS011;6669;42.678;23.332;2023-09-12T06:25:33;5.07;;;3.50;;
13208;SDS011;6669;42.678;23.332;2023-09-12T06:28:01;9.40;;;3.47;;
13208;SDS011;6669;42.678;23.332;2023-09-12T06:30:30;6.35;;;3.10;;
13208;SDS011;6669;42.678;23.332;2023-09-12T06:33:00;4.30;;;3.13;;
13208;SDS011;6669;42.678;23.332;2023-09-12T06:35:28;5.85;;;4.63;;
13208;SDS011;6669;42.678;23.332;2023-09-12T06:37:55;7.00;;;3.50;;
13208;SDS011;6669;42.678;23.332;2023-09-12T06:40:23;6.70;;;2.97;;
13208;SDS011;6669;42.678;23.332;2023-09-12T06:42:51;5.43;;;3.38;;
13208;SDS011;6669;42.678;23.332;2023-09-12T06:45:19;4.20;;;3.13;;
13208;SDS011;6669;42.678;23.332;2023-09-12T06:47:47;7.82;;;3.33;;
13208;SDS011;6669;42.678;23.332;2023-09-12T06:50:17;3.45;;;2.95;;
13208;SDS011;6669;42.678;23.332;2023-09-12T06:52:44;5.13;;;3.58;;
13208;SDS011;6669;42.678;23.332;2023-09-12T06:55:12;6.75;;;3.28;;
13208;SDS011;6669;42.678;23.332;2023-09-12T06:57:40;5.30;;;3.90;;
13208;SDS011;6669;42.678;23.332;2023-09-12T07:00:09;3.42;;;3.10;;
13208;SDS011;6669;42.678;23.332;2023-09-12T07:02:40;4.82;;;3.30;;
13208;SDS011;6669;42.678;23.332;2023-09-12T07:05:09;3.65;;;3.35;;
13208;SDS011;6669;42.678;23.332;2023-09-12T07:07:39;4.60;;;3.30;;
13208;SDS011;6669;42.678;23.332;2023-09-12T07:10:07;4.78;;;3.25;;
13208;SDS011;6669;42.678;23.332;2023-09-12T07:12:50;6.18;;;4.00;;
13208;SDS011;6669;42.678;23.332;2023-09-12T07:15:18;4.05;;;3.38;;
13208;SDS011;6669;42.678;23.332;2023-09-12T07:17:46;5.40;;;3.38;;
13208;SDS011;6669;42.678;23.332;2023-09-12T07:20:16;3.65;;;3.10;;
13208;SDS011;6669;42.678;23.332;2023-09-12T07:22:45;5.43;;;2.72;;
13208;SDS011;6669;42.678;23.332;2023-09-12T07:25:14;4.85;;;3.45;;
13208;SDS011;6669;42.678;23.332;2023-09-12T07:27:42;5.70;;;3.50;;
13208;SDS011;6669;42.678;23.332;2023-09-12T07:30:11;5.70;;;3.55;;
13208;SDS011;6669;42.678;23.332;2023-09-12T07:32:39;4.07;;;3.13;;
13208;SDS011;6669;42.678;23.332;2023-09-12T07:35:07;4.97;;;3.35;;
13208;SDS011;6669;42.678;23.332;2023-09-12T07:37:35;4.22;;;3.47;;
13208;SDS011;6669;42.678;23.332;2023-09-12T07:40:06;4.57;;;3.42;;
13208;SDS011;6669;42.678;23.332;2023-09-12T07:42:36;6.80;;;3.20;;
13208;SDS011;6669;42.678;23.332;2023-09-12T07:45:05;4.80;;;3.20;;
13208;SDS011;6669;42.678;23.332;2023-09-12T07:47:34;6.38;;;3.03;;
13208;SDS011;6669;42.678;23.332;2023-09-12T07:50:02;5.40;;;3.50;;
13208;SDS011;6669;42.678;23.332;2023-09-12T07:52:33;4.65;;;3.10;;
13208;SDS011;6669;42.678;23.332;2023-09-12T07:55:01;5.15;;;3.65;;
13208;SDS011;6669;42.678;23.332;2023-09-12T07:57:31;5.72;;;3.47;;
13208;SDS011;6669;42.678;23.332;2023-09-12T08:00:00;4.00;;;2.83;;
13208;SDS011;6669;42.678;23.332;2023-09-12T08:02:30;8.48;;;2.80;;
13208;SDS011;6669;42.678;23.332;2023-09-12T08:04:58;3.50;;;3.13;;
13208;SDS011;6669;42.678;23.332;2023-09-12T08:07:26;4.97;;;2.80;;
13208;SDS011;6669;42.678;23.332;2023-09-12T08:09:55;3.90;;;2.72;;
13208;SDS011;6669;42.678;23.332;2023-09-12T08:12:25;3.65;;;2.75;;
13208;SDS011;6669;42.678;23.332;2023-09-12T08:14:56;5.75;;;2.60;;
13208;SDS011;6669;42.678;23.332;2023-09-12T08:17:25;4.13;;;2.65;;
13208;SDS011;6669;42.678;23.332;2023-09-12T08:19:53;4.40;;;2.45;;
13208;SDS011;6669;42.678;23.332;2023-09-12T08:22:21;3.83;;;2.85;;
13208;SDS011;6669;42.678;23.332;2023-09-12T08:24:49;3.75;;;2.90;;
13208;SDS011;6669;42.678;23.332;2023-09-12T08:27:17;5.30;;;2.92;;
13208;SDS011;6669;42.678;23.332;2023-09-12T08:29:45;4.45;;;2.90;;
13208;SDS011;6669;42.678;23.332;2023-09-12T08:32:16;4.70;;;2.58;;
13208;SDS011;6669;42.678;23.332;2023-09-12T08:34:45;3.55;;;2.53;;
13208;SDS011;6669;42.678;23.332;2023-09-12T08:37:19;3.10;;;2.60;;
13208;SDS011;6669;42.678;23.332;2023-09-12T08:39:47;4.53;;;2.63;;
13208;SDS011;6669;42.678;23.332;2023-09-12T08:42:15;3.97;;;2.50;;
13208;SDS011;6669;42.678;23.332;2023-09-12T08:44:44;4.25;;;2.30;;
13208;SDS011;6669;42.678;23.332;2023-09-12T08:47:12;6.00;;;2.65;;
13208;SDS011;6669;42.678;23.332;2023-09-12T08:49:45;4.18;;;2.45;;
13208;SDS011;6669;42.678;23.332;2023-09-12T08:52:13;3.83;;;2.22;;
13208;SDS011;6669;42.678;23.332;2023-09-12T08:54:41;2.45;;;2.25;;
13208;SDS011;6669;42.678;23.332;2023-09-12T08:57:08;5.28;;;2.50;;
13208;SDS011;6669;42.678;23.332;2023-09-12T08:59:39;2.85;;;2.30;;
13208;SDS011;6669;42.678;23.332;2023-09-12T09:02:11;4.40;;;2.30;;
13208;SDS011;6669;42.678;23.332;2023-09-12T09:04:39;5.82;;;2.40;;
13208;SDS011;6669;42.678;23.332;2023-09-12T09:07:09;4.30;;;2.35;;
13208;SDS011;6669;42.678;23.332;2023-09-12T09:09:39;4.80;;;2.30;;
13208;SDS011;6669;42.678;23.332;2023-09-12T09:12:08;4.32;;;2.50;;
13208;SDS011;6669;42.678;23.332;2023-09-12T09:14:37;3.60;;;2.33;;
13208;SDS011;6669;42.678;23.332;2023-09-12T09:17:05;5.72;;;2.35;;
13208;SDS011;6669;42.678;23.332;2023-09-12T09:19:43;4.15;;;2.63;;
13208;SDS011;6669;42.678;23.332;2023-09-12T09:22:13;5.75;;;2.65;;
13208;SDS011;6669;42.678;23.332;2023-09-12T09:24:41;3.08;;;2.40;;
13208;SDS011;6669;42.678;23.332;2023-09-12T09:27:10;4.78;;;2.15;;
13208;SDS011;6669;42.678;23.332;2023-09-12T09:29:47;2.30;;;2.10;;
13208;SDS011;6669;42.678;23.332;2023-09-12T09:32:18;3.20;;;2.30;;
13208;SDS011;6669;42.678;23.332;2023-09-12T09:34:48;4.97;;;2.30;;
13208;SDS011;6669;42.678;23.332;2023-09-12T09:37:18;3.33;;;1.92;;
13208;SDS011;6669;42.678;23.332;2023-09-12T09:39:47;3.35;;;2.00;;
13208;SDS011;6669;42.678;23.332;2023-09-12T09:42:18;3.42;;;1.80;;
13208;SDS011;6669;42.678;23.332;2023-09-12T09:44:49;2.20;;;2.00;;
13208;SDS011;6669;42.678;23.332;2023-09-12T09:47:18;2.17;;;1.90;;
13208;SDS011;6669;42.678;23.332;2023-09-12T09:49:46;2.00;;;1.73;;
13208;SDS011;6669;42.678;23.332;2023-09-12T09:52:14;3.83;;;2.00;;
13208;SDS011;6669;42.678;23.332;2023-09-12T09:54:58;5.13;;;1.73;;
13208;SDS011;6669;42.678;23.332;2023-09-12T09:57:27;10.05;;;5.65;;
13208;SDS011;6669;42.678;23.332;2023-09-12T09:59:56;2.28;;;1.88;;
13208;SDS011;6669;42.678;23.332;2023-09-12T10:02:24;4.65;;;1.90;;
13208;SDS011;6669;42.678;23.332;2023-09-12T10:04:54;2.65;;;1.80;;
13208;SDS011;6669;42.678;23.332;2023-09-12T10:07:26;3.42;;;2.08;;
13208;SDS011;6669;42.678;23.332;2023-09-12T10:09:55;3.42;;;1.95;;
13208;SDS011;6669;42.678;23.332;2023-09-12T10:12:28;2.47;;;1.92;;
13208;SDS011;6669;42.678;23.332;2023-09-12T10:14:58;3.83;;;1.73;;
13208;SDS011;6669;42.678;23.332;2023-09-12T10:17:36;4.03;;;1.92;;
13208;SDS011;6669;42.678;23.332;2023-09-12T10:20:07;4.35;;;1.90;;
13208;SDS011;6669;42.678;23.332;2023-09-12T10:22:43;3.35;;;1.85;;
13208;SDS011;6669;42.678;23.332;2023-09-12T10:25:18;4.13;;;2.28;;
13208;SDS011;6669;42.678;23.332;2023-09-12T10:27:48;2.10;;;1.90;;
13208;SDS011;6669;42.678;23.332;2023-09-12T10:30:17;3.53;;;1.85;;
13208;SDS011;6669;42.678;23.332;2023-09-12T10:32:46;5.60;;;3.60;;
13208;SDS011;6669;42.678;23.332;2023-09-12T10:35:17;2.25;;;2.05;;
13208;SDS011;6669;42.678;23.332;2023-09-12T10:37:46;3.10;;;2.05;;
13208;SDS011;6669;42.678;23.332;2023-09-12T10:40:18;4.05;;;2.00;;
13208;SDS011;6669;42.678;23.332;2023-09-12T10:42:47;4.20;;;2.40;;
13208;SDS011;6669;42.678;23.332;2023-09-12T10:45:17;4.18;;;2.38;;
13208;SDS011;6669;42.678;23.332;2023-09-12T10:47:46;2.30;;;1.73;;
13208;SDS011;6669;42.678;23.332;2023-09-12T10:50:14;2.28;;;2.08;;
13208;SDS011;6669;42.678;23.332;2023-09-12T10:52:44;3.53;;;2.10;;
13208;SDS011;6669;42.678;23.332;2023-09-12T10:55:15;1.80;;;1.70;;
13208;SDS011;6669;42.678;23.332;2023-09-12T10:58:01;2.35;;;2.05;;
13208;SDS011;6669;42.678;23.332;2023-09-12T11:00:30;2.78;;;1.95;;
13208;SDS011;6669;42.678;23.332;2023-09-12T11:02:59;3.38;;;1.77;;
13208;SDS011;6669;42.678;23.332;2023-09-12T11:05:51;4.95;;;2.00;;
13208;SDS011;6669;42.678;23.332;2023-09-12T11:08:21;4.15;;;2.00;;
13208;SDS011;6669;42.678;23.332;2023-09-12T11:13:52;5.40;;;2.33;;
13208;SDS011;6669;42.678;23.332;2023-09-12T11:16:31;1.63;;;1.50;;
13208;SDS011;6669;42.678;23.332;2023-09-12T11:19:15;4.10;;;1.85;;
13208;SDS011;6669;42.678;23.332;2023-09-12T11:21:45;2.50;;;2.28;;
13208;SDS011;6669;42.678;23.332;2023-09-12T11:24:15;4.85;;;2.10;;
13208;SDS011;6669;42.678;23.332;2023-09-12T11:26:54;2.80;;;1.70;;
13208;SDS011;6669;42.678;23.332;2023-09-12T11:29:27;5.45;;;2.20;;
13208;SDS011;6669;42.678;23.332;2023-09-12T11:31:57;2.72;;;1.83;;
13208;SDS011;6669;42.678;23.332;2023-09-12T11:34:26;2.08;;;1.85;;
13208;SDS011;6669;42.678;23.332;2023-09-12T11:36:55;5.43;;;2.30;;
13208;SDS011;6669;42.678;23.332;2023-09-12T11:39:28;2.38;;;1.65;;
13208;SDS011;6669;42.678;23.332;2023-09-12T11:41:59;2.85;;;1.60;;
13208;SDS011;6669;42.678;23.332;2023-09-12T11:44:29;2.33;;;1.73;;
13208;SDS011;6669;42.678;23.332;2023-09-12T11:46:59;3.85;;;1.92;;
13208;SDS011;6669;42.678;23.332;2023-09-12T11:49:35;2.72;;;1.77;;
13208;SDS011;6669;42.678;23.332;2023-09-12T11:52:07;2.08;;;1.75;;
13208;SDS011;6669;42.678;23.332;2023-09-12T11:54:36;2.35;;;2.13;;
13208;SDS011;6669;42.678;23.332;2023-09-12T11:57:04;2.17;;;1.95;;
13208;SDS011;6669;42.678;23.332;2023-09-12T11:59:37;2.28;;;1.88;;
13208;SDS011;6669;42.678;23.332;2023-09-12T12:02:07;4.53;;;2.15;;
13208;SDS011;6669;42.678;23.332;2023-09-12T12:04:36;2.83;;;1.80;;
13208;SDS011;6669;42.678;23.332;2023-09-12T12:07:05;3.97;;;2.00;;
13208;SDS011;6669;42.678;23.332;2023-09-12T12:09:34;2.08;;;1.88;;
13208;SDS011;6669;42.678;23.332;2023-09-12T12:12:09;1.60;;;1.50;;
13208;SDS011;6669;42.678;23.332;2023-09-12T12:14:40;2.30;;;2.00;;
13208;SDS011;6669;42.678;23.332;2023-09-12T12:17:11;3.38;;;2.10;;
13208;SDS011;6669;42.678;23.332;2023-09-12T12:19:44;4.10;;;2.10;;
13208;SDS011;6669;42.678;23.332;2023-09-12T12:22:13;5.05;;;2.13;;
13208;SDS011;6669;42.678;23.332;2023-09-12T12:24:43;2.40;;;2.20;;
13208;SDS011;6669;42.678;23.332;2023-09-12T12:27:14;4.35;;;2.35;;
13208;SDS011;6669;42.678;23.332;2023-09-12T12:29:43;2.45;;;2.20;;
13208;SDS011;6669;42.678;23.332;2023-09-12T12:32:14;4.00;;;2.10;;
13208;SDS011;6669;42.678;23.332;2023-09-12T12:34:47;3.17;;;1.80;;
13208;SDS011;6669;42.678;23.332;2023-09-12T12:37:37;2.80;;;2.00;;
13208;SDS011;6669;42.678;23.332;2023-09-12T12:40:06;4.53;;;2.00;;
13208;SDS011;6669;42.678;23.332;2023-09-12T12:42:40;4.60;;;2.03;;
13208;SDS011;6669;42.678;23.332;2023-09-12T12:45:22;3.22;;;1.80;;
13208;SDS011;6669;42.678;23.332;2023-09-12T12:47:51;4.95;;;2.00;;
13208;SDS011;6669;42.678;23.332;2023-09-12T12:50:23;3.63;;;1.88;;
13208;SDS011;6669;42.678;23.332;2023-09-12T12:52:51;3.63;;;2.10;;
13208;SDS011;6669;42.678;23.332;2023-09-12T12:55:19;2.83;;;2.03;;
13208;SDS011;6669;42.678;23.332;2023-09-12T12:57:48;4.07;;;2.20;;
13208;SDS011;6669;42.678;23.332;2023-09-12T13:00:17;5.22;;;2.28;;
13208;SDS011;6669;42.678;23.332;2023-09-12T13:02:49;4.00;;;1.80;;
13208;SDS011;6669;42.678;23.332;2023-09-12T13:05:24;4.00;;;2.03;;
13208;SDS011;6669;42.678;23.332;2023-09-12T13:07:52;3.17;;;2.00;;
13208;SDS011;6669;42.678;23.332;2023-09-12T13:10:21;2.25;;;1.90;;
13208;SDS011;6669;42.678;23.332;2023-09-12T13:12:50;2.35;;;1.90;;
13208;SDS011;6669;42.678;23.332;2023-09-12T13:15:18;3.35;;;2.00;;
13208;SDS011;6669;42.678;23.332;2023-09-12T13:17:46;6.20;;;2.67;;
13208;SDS011;6669;42.678;23.332;2023-09-12T13:20:17;2.60;;;2.40;;
13208;SDS011;6669;42.678;23.332;2023-09-12T13:22:46;3.13;;;2.25;;
13208;SDS011;6669;42.678;23.332;2023-09-12T13:25:14;3.05;;;2.60;;
13208;SDS011;6669;42.678;23.332;2023-09-12T13:27:42;5.53;;;2.85;;
13208;SDS011;6669;42.678;23.332;2023-09-12T13:30:11;3.13;;;2.30;;
13208;SDS011;6669;42.678;23.332;2023-09-12T13:32:40;2.28;;;1.92;;
13208;SDS011;6669;42.678;23.332;2023-09-12T13:35:08;5.90;;;2.05;;
13208;SDS011;6669;42.678;23.332;2023-09-12T13:37:38;2.10;;;1.90;;
13208;SDS011;6669;42.678;23.332;2023-09-12T13:40:06;3.45;;;2.20;;
13208;SDS011;6669;42.678;23.332;2023-09-12T13:42:35;2.47;;;1.77;;
13208;SDS011;6669;42.678;23.332;2023-09-12T13:45:04;2.58;;;1.90;;
13208;SDS011;6669;42.678;23.332;2023-09-12T13:47:33;4.32;;;2.40;;
13208;SDS011;6669;42.678;23.332;2023-09-12T13:50:01;4.95;;;3.88;;
13208;SDS011;6669;42.678;23.332;2023-09-12T13:52:29;3.17;;;2.88;;
13208;SDS011;6669;42.678;23.332;2023-09-12T13:55:00;2.38;;;2.00;;
13208;SDS011;6669;42.678;23.332;2023-09-12T13:57:30;2.72;;;2.30;;
13208;SDS011;6669;42.678;23.332;2023-09-12T14:00:03;4.05;;;1.92;;
13208;SDS011;6669;42.678;23.332;2023-09-12T14:02:32;4.40;;;2.40;;
13208;SDS011;6669;42.678;23.332;2023-09-12T14:05:00;2.95;;;1.90;;
13208;SDS011;6669;42.678;23.332;2023-09-12T14:07:39;3.33;;;1.70;;
13208;SDS011;6669;42.678;23.332;2023-09-12T14:10:10;5.75;;;1.98;;
13208;SDS011;6669;42.678;23.332;2023-09-12T14:12:48;2.47;;;1.92;;
13208;SDS011;6669;42.678;23.332;2023-09-12T14:15:16;2.28;;;2.08;;
13208;SDS011;6669;42.678;23.332;2023-09-12T14:17:46;2.72;;;1.85;;
13208;SDS011;6669;42.678;23.332;2023-09-12T14:20:22;3.75;;;2.10;;
13208;SDS011;6669;42.678;23.332;2023-09-12T14:22:50;4.18;;;1.80;;
13208;SDS011;6669;42.678;23.332;2023-09-12T14:25:20;3.05;;;1.90;;
13208;SDS011;6669;42.678;23.332;2023-09-12T14:27:49;4.80;;;2.10;;
13208;SDS011;6669;42.678;23.332;2023-09-12T14:30:17;2.33;;;1.80;;
13208;SDS011;6669;42.678;23.332;2023-09-12T14:32:47;2.22;;;1.95;;
13208;SDS011;6669;42.678;23.332;2023-09-12T14:35:16;2.15;;;1.92;;
13208;SDS011;6669;42.678;23.332;2023-09-12T14:37:44;5.88;;;2.58;;
13208;SDS011;6669;42.678;23.332;2023-09-12T14:40:12;2.97;;;1.90;;
13208;SDS011;6669;42.678;23.332;2023-09-12T14:42:45;2.45;;;1.67;;
13208;SDS011;6669;42.678;23.332;2023-09-12T14:45:13;4.47;;;2.55;;
13208;SDS011;6669;42.678;23.332;2023-09-12T14:47:42;5.13;;;1.90;;
13208;SDS011;6669;42.678;23.332;2023-09-12T14:50:10;3.65;;;1.88;;
13208;SDS011;6669;42.678;23.332;2023-09-12T14:52:39;1.90;;;1.70;;
13208;SDS011;6669;42.678;23.332;2023-09-12T14:55:08;2.17;;;1.98;;
13208;SDS011;6669;42.678;23.332;2023-09-12T14:57:37;2.33;;;1.98;;
13208;SDS011;6669;42.678;23.332;2023-09-12T15:00:07;1.98;;;1.77;;
13208;SDS011;6669;42.678;23.332;2023-09-12T15:02:36;3.40;;;2.08;;
13208;SDS011;6669;42.678;23.332;2023-09-12T15:05:04;5.07;;;2.38;;
13208;SDS011;6669;42.678;23.332;2023-09-12T15:07:33;2.10;;;1.90;;